Time;durP1;ratioP1;P1;durP2;ratioP2;P2;SDS_P1;SDS_P2;PMS_P1;PMS_P2;Temp;Humidity;BMP_temperature;BMP_pressure;BME280_temperature;BME280_humidity;BME280_pressure;Samples;Min_cycle;Max_cycle;Signal;HPM_P1;HPM_P2
2021/01/26 00:00:56;;;;;;;6.95;6.57;;;35.50;86.80;;;;;;5073979;28;20087;-59
2021/01/26 00:03:24;;;;;;;8.02;7.63;;;35.80;85.90;;;;;;5074262;28;20020;-58
2021/01/26 00:05:52;;;;;;;8.75;8.25;;;35.80;84.90;;;;;;5073728;28;20066;-59
2021/01/26 00:08:20;;;;;;;8.30;8.00;;;35.90;82.40;;;;;;5074093;28;20111;-60
2021/01/26 00:10:48;;;;;;;8.35;7.95;;;36.10;90.70;;;;;;5073611;28;20028;-59
2021/01/26 00:13:17;;;;;;;7.72;7.32;;;36.00;80.40;;;;;;5073718;28;20028;-60
2021/01/26 00:15:44;;;;;;;8.15;7.85;;;36.30;79.60;;;;;;5073656;28;20024;-58
2021/01/26 00:18:11;;;;;;;8.68;8.27;;;36.30;79.00;;;;;;5073523;28;20052;-60
2021/01/26 00:20:39;;;;;;;8.45;7.82;;;36.40;78.30;;;;;;5073753;28;20117;-60
2021/01/26 00:23:06;;;;;;;8.27;7.97;;;36.50;76.60;;;;;;5073510;28;20028;-60
2021/01/26 00:25:37;;;;;;;7.90;7.50;;;36.40;75.30;;;;;;5073478;28;20040;-60
2021/01/26 00:28:06;;;;;;;8.45;8.02;;;36.40;75.30;;;;;;5073922;28;20028;-59
2021/01/26 00:30:36;;;;;;;9.02;8.52;;;36.20;75.30;;;;;;5073715;28;20035;-60
2021/01/26 00:33:10;;;;;;;8.30;7.90;;;36.40;77.50;;;;;;5073345;28;20039;-59
2021/01/26 00:35:37;;;;;;;7.60;7.20;;;36.60;77.20;;;;;;5073567;28;20034;-59
2021/01/26 00:38:05;;;;;;;8.48;8.05;;;36.90;76.70;;;;;;5073263;28;20024;-60
2021/01/26 00:40:33;;;;;;;8.07;7.68;;;36.80;74.70;;;;;;5072004;28;20036;-59
2021/01/26 00:43:01;;;;;;;6.20;5.90;;;36.50;75.30;;;;;;5073495;28;20032;-59
2021/01/26 00:45:30;;;;;;;8.23;7.82;;;36.70;76.90;;;;;;5074289;28;20489;-59
2021/01/26 00:47:57;;;;;;;7.90;7.50;;;36.80;74.30;;;;;;5073754;28;20037;-58
2021/01/26 00:50:26;;;;;;;7.88;7.38;;;37.00;74.20;;;;;;5073838;28;20028;-59
2021/01/26 00:52:54;;;;;;;6.25;5.85;;;37.00;73.30;;;;;;5073517;28;20078;-59
2021/01/26 00:55:25;;;;;;;7.55;7.15;;;36.90;73.00;;;;;;5073702;28;20028;-58
2021/01/26 00:57:53;;;;;;;8.75;8.13;;;37.20;73.20;;;;;;5073565;28;20016;-59
2021/01/26 01:00:26;;;;;;;8.05;7.65;;;37.30;72.30;;;;;;5073556;28;20023;-51
2021/01/26 01:02:54;;;;;;;8.60;8.10;;;37.30;72.90;;;;;;5073265;28;20496;-57
2021/01/26 01:05:21;;;;;;;8.30;7.90;;;37.40;74.10;;;;;;5073077;28;20055;-54
2021/01/26 01:07:49;;;;;;;9.15;8.57;;;37.40;73.10;;;;;;5072815;28;20074;-57
2021/01/26 01:10:21;;;;;;;8.90;8.50;;;37.50;71.60;;;;;;5072617;28;20032;-60
2021/01/26 01:12:49;;;;;;;9.57;8.93;;;37.40;71.70;;;;;;5072813;28;20044;-58
2021/01/26 01:15:17;;;;;;;9.27;8.68;;;37.80;71.90;;;;;;5072763;28;20020;-59
2021/01/26 01:17:45;;;;;;;7.80;7.40;;;37.70;70.40;;;;;;5073110;28;20063;-60
2021/01/26 01:20:16;;;;;;;7.95;7.55;;;37.60;69.90;;;;;;5072871;28;20465;-60
2021/01/26 01:22:43;;;;;;;7.93;7.57;;;37.60;69.90;;;;;;5073062;28;20025;-60
2021/01/26 01:25:11;;;;;;;8.70;8.25;;;37.70;70.80;;;;;;5073013;28;20035;-59
2021/01/26 01:27:39;;;;;;;8.80;8.25;;;37.80;70.00;;;;;;5072694;28;20029;-59
2021/01/26 01:30:09;;;;;;;8.27;7.82;;;38.00;70.50;;;;;;5072682;28;20027;-60
2021/01/26 01:32:37;;;;;;;9.25;8.68;;;38.20;69.90;;;;;;5072851;28;20059;-60
2021/01/26 01:35:06;;;;;;;8.90;8.60;;;38.40;68.20;;;;;;5072784;28;20013;-60
2021/01/26 01:37:33;;;;;;;8.23;7.82;;;38.30;69.50;;;;;;5072943;28;20028;-60
2021/01/26 01:40:01;;;;;;;8.57;8.07;;;38.30;67.80;;;;;;5072686;28;20043;-60
2021/01/26 01:42:28;;;;;;;8.02;7.63;;;38.50;68.80;;;;;;5072755;28;20137;-61
2021/01/26 01:44:55;;;;;;;8.70;8.30;;;38.80;68.40;;;;;;5072721;28;20485;-61
2021/01/26 01:47:32;;;;;;;8.82;8.35;;;39.10;67.40;;;;;;5072749;28;20055;-60
2021/01/26 01:50:00;;;;;;;8.32;7.90;;;39.10;66.30;;;;;;5072644;28;20150;-60
2021/01/26 01:52:34;;;;;;;8.20;7.60;;;39.10;67.00;;;;;;5072495;28;20438;-60
2021/01/26 01:55:12;;;;;;;8.00;7.70;;;39.00;66.40;;;;;;5072421;28;20020;-61
2021/01/26 01:58:03;;;;;;;7.90;7.50;;;39.10;66.90;;;;;;5072552;28;20496;-60
2021/01/26 02:00:33;;;;;;;7.72;7.43;;;39.30;66.70;;;;;;5072386;28;20477;-61
2021/01/26 02:03:14;;;;;;;7.93;7.60;;;39.50;67.20;;;;;;5072498;28;20020;-61
2021/01/26 02:05:42;;;;;;;8.80;8.40;;;39.80;69.10;;;;;;5072570;28;20020;-60
2021/01/26 02:08:19;;;;;;;9.02;8.43;;;39.70;67.40;;;;;;5072417;28;20396;-60
2021/01/26 02:10:47;;;;;;;8.38;8.05;;;39.60;65.90;;;;;;5072509;28;20031;-60
2021/01/26 02:13:15;;;;;;;8.70;8.30;;;39.70;66.50;;;;;;5072645;28;20039;-60
2021/01/26 02:15:43;;;;;;;9.00;8.60;;;39.70;64.50;;;;;;5072334;28;20024;-59
2021/01/26 02:18:30;;;;;;;9.30;8.95;;;39.40;63.60;;;;;;5072495;28;20024;-59
2021/01/26 02:21:23;;;;;;;8.57;8.07;;;39.30;65.20;;;;;;5072640;28;20025;-60
2021/01/26 02:24:15;;;;;;;8.38;8.07;;;39.40;64.50;;;;;;5075921;28;20035;-59
2021/01/26 02:27:03;;;;;;;8.38;7.97;;;39.60;63.70;;;;;;5075824;28;20032;-60
2021/01/26 02:29:48;;;;;;;8.40;7.95;;;39.50;63.70;;;;;;5075890;28;20076;-59
2021/01/26 02:32:39;;;;;;;8.80;8.35;;;39.90;62.90;;;;;;5075786;28;20064;-59
2021/01/26 02:35:33;;;;;;;7.53;7.22;;;39.90;62.70;;;;;;5075761;28;20033;-59
2021/01/26 02:38:24;;;;;;;8.20;7.75;;;40.00;62.20;;;;;;5075688;28;20119;-59
2021/01/26 02:41:10;;;;;;;8.15;7.75;;;39.80;62.50;;;;;;5075643;28;20023;-59
2021/01/26 02:43:53;;;;;;;7.68;7.38;;;40.00;63.20;;;;;;5075591;28;20388;-59
2021/01/26 02:46:29;;;;;;;9.07;8.70;;;40.10;62.30;;;;;;5075677;28;20024;-59
2021/01/26 02:49:20;;;;;;;9.88;9.45;;;40.50;62.60;;;;;;5075333;28;20016;-59
2021/01/26 02:51:53;;;;;;;8.98;8.57;;;40.50;59.70;;;;;;5075203;28;20103;-60
2021/01/26 02:54:46;;;;;;;8.68;8.23;;;40.40;62.30;;;;;;5075490;28;20112;-59
2021/01/26 02:57:24;;;;;;;8.73;8.43;;;40.30;60.00;;;;;;5068823;28;20083;-59
2021/01/26 02:59:57;;;;;;;9.48;8.82;;;40.10;58.10;;;;;;5075255;28;20013;-59
2021/01/26 03:02:36;;;;;;;9.80;9.40;;;40.00;60.50;;;;;;5075217;28;20021;-60
2021/01/26 03:05:10;;;;;;;9.25;8.65;;;40.30;59.10;;;;;;5075158;28;20049;-60
2021/01/26 03:07:44;;;;;;;9.52;9.13;;;40.60;60.10;;;;;;5074934;28;20048;-60
2021/01/26 03:10:17;;;;;;;9.63;9.13;;;40.80;60.50;;;;;;5075203;28;20077;-60
2021/01/26 03:12:51;;;;;;;10.20;9.52;;;41.10;60.10;;;;;;5074910;28;20473;-59
2021/01/26 03:15:26;;;;;;;10.65;9.93;;;41.10;60.00;;;;;;5074826;28;20096;-60
2021/01/26 03:17:58;;;;;;;11.77;11.07;;;41.10;68.00;;;;;;5074980;28;20468;-60
2021/01/26 03:20:37;;;;;;;11.55;10.75;;;41.10;68.20;;;;;;5074863;28;20351;-60
2021/01/26 03:23:10;;;;;;;10.60;10.10;;;40.50;66.60;;;;;;5074833;28;20017;-60
2021/01/26 03:25:47;;;;;;;10.57;10.07;;;40.00;61.50;;;;;;5074763;28;20487;-60
2021/01/26 03:28:16;;;;;;;11.15;10.57;;;39.90;60.00;;;;;;5074687;28;20469;-60
2021/01/26 03:30:47;;;;;;;11.95;11.15;;;40.00;65.90;;;;;;5074661;28;20028;-60
2021/01/26 03:33:40;;;;;;;10.90;10.13;;;39.90;68.60;;;;;;5074334;28;20108;-59
2021/01/26 03:36:08;;;;;;;11.15;10.50;;;39.90;69.20;;;;;;5074255;28;20033;-59
2021/01/26 03:38:35;;;;;;;11.48;10.68;;;39.50;69.30;;;;;;5074437;28;20017;-60
2021/01/26 03:41:06;;;;;;;10.20;9.40;;;39.20;69.30;;;;;;5074580;28;20038;-60
2021/01/26 03:43:34;;;;;;;11.63;10.75;;;39.20;69.70;;;;;;5074473;28;20119;-60
2021/01/26 03:46:08;;;;;;;12.02;11.20;;;39.10;69.50;;;;;;5074574;28;20040;-60
2021/01/26 03:49:07;;;;;;;12.05;11.20;;;38.90;70.40;;;;;;5074398;28;20536;-60
2021/01/26 03:51:53;;;;;;;11.60;10.77;;;38.90;70.00;;;;;;5074464;28;20021;-60
2021/01/26 03:54:37;;;;;;;11.02;10.30;;;38.50;71.50;;;;;;5074369;28;20024;-61
2021/01/26 03:57:16;;;;;;;8.23;7.53;;;38.70;72.00;;;;;;5074270;28;20024;-61
2021/01/26 03:59:53;;;;;;;8.15;7.40;;;38.70;70.80;;;;;;5074218;28;20039;-60
2021/01/26 04:02:30;;;;;;;9.40;8.80;;;38.60;70.70;;;;;;5074226;28;20492;-60
2021/01/26 04:05:12;;;;;;;11.40;10.70;;;38.70;70.90;;;;;;5074017;28;20039;-60
2021/01/26 04:07:48;;;;;;;6.45;5.85;;;38.70;70.70;;;;;;5073959;28;20072;-60
2021/01/26 04:10:24;;;;;;;7.57;7.07;;;38.60;72.00;;;;;;5073956;28;20036;-60
2021/01/26 04:13:08;;;;;;;8.07;7.53;;;38.60;72.00;;;;;;5073665;28;20035;-60
2021/01/26 04:15:51;;;;;;;6.97;6.47;;;38.20;72.30;;;;;;5073703;28;20051;-61
2021/01/26 04:18:25;;;;;;;8.30;7.53;;;37.60;73.10;;;;;;5073756;28;20446;-60
2021/01/26 04:20:53;;;;;;;8.38;7.70;;;37.30;74.30;;;;;;5073732;28;20039;-60
2021/01/26 04:23:21;;;;;;;8.52;5.90;;;37.40;74.20;;;;;;5073699;28;20020;-60
2021/01/26 04:25:51;;;;;;;6.00;5.43;;;37.30;75.30;;;;;;5073520;28;20031;-60
2021/01/26 04:28:42;;;;;;;6.93;6.30;;;37.20;74.90;;;;;;5073622;28;20085;-60
2021/01/26 04:31:13;;;;;;;6.63;6.03;;;37.10;75.40;;;;;;5073400;28;20041;-60
2021/01/26 04:33:41;;;;;;;6.30;5.85;;;37.30;75.90;;;;;;5073406;28;20126;-60
2021/01/26 04:36:10;;;;;;;7.00;6.30;;;37.30;75.50;;;;;;5073445;28;20016;-60
2021/01/26 04:38:37;;;;;;;8.13;7.40;;;37.20;75.30;;;;;;5073452;28;20016;-59
2021/01/26 04:41:32;;;;;;;8.05;7.45;;;37.10;75.20;;;;;;5073331;28;20090;-59
2021/01/26 04:44:31;;;;;;;9.57;8.88;;;36.70;75.10;;;;;;5072777;28;20107;-59
2021/01/26 04:47:24;;;;;;;9.30;8.60;;;36.50;76.10;;;;;;5073289;28;20024;-59
2021/01/26 04:50:28;;;;;;;8.85;8.07;;;35.80;76.80;;;;;;5070763;28;20059;-60
2021/01/26 04:53:04;;;;;;;8.68;5.82;;;35.30;78.10;;;;;;5073088;28;20039;-59
2021/01/26 04:56:03;;;;;;;5.97;5.47;;;34.80;79.60;;;;;;5073377;28;20035;-59
2021/01/26 04:58:37;;;;;;;7.82;6.47;;;34.80;82.00;;;;;;5073179;28;20044;-59
2021/01/26 05:01:27;;;;;;;9.00;7.82;;;34.90;82.00;;;;;;5073106;28;20032;-60
2021/01/26 05:04:10;;;;;;;9.57;5.82;;;34.90;81.30;;;;;;5073000;28;20029;-60
2021/01/26 05:07:06;;;;;;;6.95;5.95;;;34.70;81.50;;;;;;5073156;28;20060;-59
2021/01/26 05:09:53;;;;;;;7.85;6.38;;;35.00;82.30;;;;;;5073124;28;20028;-60
2021/01/26 05:12:23;;;;;;;9.07;7.97;;;35.50;82.90;;;;;;5073103;28;20025;-61
2021/01/26 05:14:56;;;;;;;8.75;7.32;;;35.50;81.70;;;;;;5072956;28;20020;-60
2021/01/26 05:17:46;;;;;;;8.20;7.50;;;35.90;82.60;;;;;;5071761;28;20430;-59
2021/01/26 05:20:26;;;;;;;7.82;6.90;;;35.80;81.00;;;;;;5072854;28;20021;-60
2021/01/26 05:23:05;;;;;;;7.80;5.88;;;35.90;82.00;;;;;;5072766;28;20496;-60
2021/01/26 05:25:32;;;;;;;8.10;6.65;;;35.90;81.20;;;;;;5072930;28;20103;-59
2021/01/26 05:28:00;;;;;;;6.25;5.65;;;35.50;78.90;;;;;;5073232;28;20481;-59
2021/01/26 05:30:31;;;;;;;8.38;6.22;;;35.10;79.60;;;;;;5072787;28;20075;-60
2021/01/26 05:33:05;;;;;;;7.47;6.60;;;34.60;80.40;;;;;;5072598;28;20098;-60
2021/01/26 05:35:33;;;;;;;9.45;7.53;;;34.30;80.60;;;;;;5072769;28;20024;-60
2021/01/26 05:38:00;;;;;;;7.03;6.07;;;33.90;81.20;;;;;;5072835;28;20017;-60
2021/01/26 05:40:39;;;;;;;8.63;7.53;;;33.50;81.20;;;;;;5072568;28;20384;-59
2021/01/26 05:43:10;;;;;;;8.73;7.80;;;33.30;82.30;;;;;;5072536;28;20059;-60
2021/01/26 05:45:52;;;;;;;8.65;7.88;;;33.20;83.80;;;;;;5072579;28;20063;-60
2021/01/26 05:48:23;;;;;;;9.02;8.25;;;33.10;84.30;;;;;;5072656;28;20078;-60
2021/01/26 05:50:52;;;;;;;7.28;6.60;;;32.80;84.80;;;;;;5072750;28;20033;-59
2021/01/26 05:53:32;;;;;;;8.63;7.90;;;32.70;85.70;;;;;;5072446;28;20028;-60
2021/01/26 05:56:15;;;;;;;7.90;7.20;;;32.70;86.70;;;;;;5072538;28;20509;-59
2021/01/26 05:58:48;;;;;;;11.77;7.60;;;32.50;86.90;;;;;;5076414;28;20025;-60
2021/01/26 06:01:32;;;;;;;8.70;7.90;;;32.40;86.80;;;;;;5076279;28;20488;-59
2021/01/26 06:04:10;;;;;;;6.90;6.30;;;32.30;87.30;;;;;;5076292;28;20025;-60
2021/01/26 06:07:02;;;;;;;8.52;7.20;;;32.80;87.10;;;;;;5076002;28;20143;-59
2021/01/26 06:09:38;;;;;;;11.63;8.20;;;33.20;86.20;;;;;;5076137;28;20032;-59
2021/01/26 06:12:10;;;;;;;8.52;6.38;;;33.20;85.60;;;;;;5076084;28;20047;-59
2021/01/26 06:14:39;;;;;;;10.60;6.03;;;32.80;86.40;;;;;;5076127;28;20024;-59
2021/01/26 06:17:09;;;;;;;11.50;5.88;;;32.50;86.40;;;;;;5076108;28;20111;-59
2021/01/26 06:19:37;;;;;;;8.45;7.70;;;32.20;87.20;;;;;;5075903;28;20073;-59
2021/01/26 06:22:04;;;;;;;7.65;6.82;;;32.10;87.80;;;;;;5075759;28;20032;-59
2021/01/26 06:24:36;;;;;;;8.23;6.70;;;31.90;88.10;;;;;;5075822;28;20017;-60
2021/01/26 06:27:33;;;;;;;10.52;6.68;;;32.10;88.70;;;;;;5075801;28;20048;-59
2021/01/26 06:30:04;;;;;;;10.95;9.82;;;32.10;88.70;;;;;;5075725;28;20043;-59
2021/01/26 06:32:43;;;;;;;10.20;9.30;;;32.00;89.00;;;;;;5075663;28;20024;-59
2021/01/26 06:35:17;;;;;;;10.00;9.20;;;31.90;89.80;;;;;;5075666;28;20108;-59
2021/01/26 06:38:22;;;;;;;8.57;7.80;;;31.70;89.70;;;;;;5075575;28;20105;-59
2021/01/26 06:41:07;;;;;;;8.40;7.60;;;31.70;89.90;;;;;;5075487;28;20021;-59
2021/01/26 06:43:47;;;;;;;8.18;7.35;;;31.50;90.00;;;;;;5075588;28;20025;-59
2021/01/26 06:46:39;;;;;;;9.65;6.30;;;31.40;90.20;;;;;;5075540;28;20408;-59
2021/01/26 06:49:43;;;;;;;8.82;8.02;;;31.30;90.50;;;;;;5075425;28;20048;-59
2021/01/26 06:52:18;;;;;;;9.40;7.68;;;31.20;90.50;;;;;;5075254;28;20029;-59
2021/01/26 06:54:51;;;;;;;9.45;8.45;;;31.20;90.40;;;;;;5075234;28;20021;-59
2021/01/26 06:57:52;;;;;;;7.95;7.03;;;31.20;90.50;;;;;;5075213;28;20032;-59
2021/01/26 07:00:35;;;;;;;7.35;6.40;;;31.00;90.30;;;;;;5075151;28;20032;-59
2021/01/26 07:03:17;;;;;;;8.98;7.15;;;31.00;90.60;;;;;;5075177;28;20020;-59
2021/01/26 07:05:54;;;;;;;8.15;6.38;;;31.00;90.60;;;;;;5074943;28;20021;-59
2021/01/26 07:08:25;;;;;;;9.68;7.40;;;31.00;90.70;;;;;;5074569;28;20059;-58
2021/01/26 07:10:55;;;;;;;11.38;9.27;;;31.10;90.80;;;;;;5074775;28;20037;-59
2021/01/26 07:13:28;;;;;;;8.82;8.00;;;31.10;90.80;;;;;;5074765;28;20032;-58
2021/01/26 07:16:13;;;;;;;8.23;6.57;;;31.20;90.70;;;;;;5074746;28;20087;-59
2021/01/26 07:19:11;;;;;;;7.93;7.13;;;31.30;90.90;;;;;;5074878;28;20021;-58
2021/01/26 07:21:59;;;;;;;9.65;8.75;;;31.30;90.90;;;;;;5074723;28;20024;-60
2021/01/26 07:24:59;;;;;;;9.60;8.68;;;31.30;91.10;;;;;;5074646;28;20107;-59
2021/01/26 07:27:52;;;;;;;10.47;9.37;;;31.20;90.80;;;;;;5054088;28;20037;-59
2021/01/26 07:30:33;;;;;;;7.40;6.80;;;31.10;91.30;;;;;;5074506;28;20024;-59
2021/01/26 07:33:33;;;;;;;10.60;8.02;;;31.00;91.50;;;;;;5074557;28;20366;-62
2021/01/26 07:36:20;;;;;;;8.63;7.72;;;30.90;91.60;;;;;;5061635;28;20040;-56
2021/01/26 07:39:09;;;;;;;11.63;10.50;;;30.80;91.70;;;;;;5074682;28;20105;-57
2021/01/26 07:42:04;;;;;;;10.07;9.13;;;30.80;92.30;;;;;;5073322;28;20400;-58
2021/01/26 07:44:40;;;;;;;11.45;10.52;;;30.80;92.10;;;;;;5074506;28;20020;-58
2021/01/26 07:47:12;;;;;;;10.93;10.02;;;30.80;92.20;;;;;;5074647;28;20059;-58
2021/01/26 07:49:50;;;;;;;11.48;10.48;;;30.70;92.10;;;;;;5074763;28;20032;-59
2021/01/26 07:52:20;;;;;;;11.30;10.30;;;30.80;92.40;;;;;;5075009;28;20048;-58
2021/01/26 07:55:09;;;;;;;11.38;10.40;;;30.70;92.00;;;;;;5074483;28;20416;-59
2021/01/26 07:57:46;;;;;;;10.68;9.82;;;30.60;92.10;;;;;;5074651;28;20035;-58
2021/01/26 08:00:16;;;;;;;11.55;10.55;;;30.50;91.80;;;;;;5074741;28;20036;-58
2021/01/26 08:02:51;;;;;;;12.27;11.07;;;30.50;91.90;;;;;;5074601;28;20029;-58
2021/01/26 08:05:20;;;;;;;11.98;10.90;;;30.50;92.10;;;;;;5074385;28;20063;-58
2021/01/26 08:07:47;;;;;;;11.43;9.73;;;30.50;91.90;;;;;;5073871;28;20084;-58
2021/01/26 08:10:24;;;;;;;11.88;10.77;;;30.40;92.10;;;;;;5074299;28;20016;-58
2021/01/26 08:12:51;;;;;;;14.30;12.90;;;30.40;92.50;;;;;;5073846;28;20526;-58
2021/01/26 08:15:33;;;;;;;12.93;11.63;;;30.40;92.60;;;;;;5073991;28;20394;-58
2021/01/26 08:18:26;;;;;;;12.97;11.73;;;30.30;92.90;;;;;;5074328;28;20012;-57
2021/01/26 08:20:54;;;;;;;13.95;12.50;;;30.20;93.30;;;;;;5073165;28;20047;-58
2021/01/26 08:23:31;;;;;;;12.98;11.80;;;30.20;93.60;;;;;;5073711;28;20095;-58
2021/01/26 08:26:16;;;;;;;13.52;12.13;;;30.10;93.70;;;;;;5073847;28;20436;-58
2021/01/26 08:28:48;;;;;;;13.90;12.45;;;30.10;93.70;;;;;;5073524;28;20044;-58
2021/01/26 08:31:35;;;;;;;13.38;11.98;;;30.00;93.90;;;;;;5073468;28;20393;-58
2021/01/26 08:34:21;;;;;;;13.68;11.98;;;30.00;94.10;;;;;;5073435;28;20072;-59
2021/01/26 08:37:11;;;;;;;13.10;11.75;;;29.90;94.40;;;;;;5073537;28;20017;-59
2021/01/26 08:39:40;;;;;;;13.52;12.23;;;29.90;94.70;;;;;;5073216;28;20200;-58
2021/01/26 08:42:09;;;;;;;14.48;12.05;;;29.80;94.80;;;;;;5073414;28;20089;-58
2021/01/26 08:44:36;;;;;;;17.10;12.35;;;29.70;95.20;;;;;;5073338;28;20481;-58
2021/01/26 08:47:42;;;;;;;14.05;12.10;;;29.70;95.50;;;;;;5073525;28;20017;-58
2021/01/26 08:50:20;;;;;;;12.70;11.40;;;29.70;95.40;;;;;;5070748;28;20056;-57
2021/01/26 08:52:47;;;;;;;16.90;11.10;;;29.70;95.50;;;;;;5073814;28;20021;-57
2021/01/26 08:55:41;;;;;;;13.90;11.00;;;29.70;95.70;;;;;;5073857;28;20494;-58
2021/01/26 08:58:13;;;;;;;18.83;12.52;;;29.80;95.40;;;;;;5071573;28;20044;-53
2021/01/26 09:00:49;;;;;;;13.55;11.60;;;29.80;95.40;;;;;;5073573;28;20021;-53
2021/01/26 09:03:35;;;;;;;12.98;11.55;;;29.80;95.10;;;;;;5073631;28;20024;-54
2021/01/26 09:06:05;;;;;;;13.63;11.60;;;29.80;95.20;;;;;;5073477;28;20104;-56
2021/01/26 09:08:42;;;;;;;13.00;11.60;;;29.70;95.10;;;;;;5073524;28;20491;-49
2021/01/26 09:11:18;;;;;;;14.60;12.38;;;29.80;95.50;;;;;;5073589;28;20028;-59
2021/01/26 09:13:47;;;;;;;10.27;7.55;;;29.70;95.80;;;;;;5073537;28;20024;-61
2021/01/26 09:16:27;;;;;;;11.40;8.32;;;29.80;96.00;;;;;;5073329;28;20020;-60
2021/01/26 09:19:11;;;;;;;14.23;9.82;;;29.70;96.40;;;;;;5073610;28;20047;-60
2021/01/26 09:21:39;;;;;;;14.48;12.15;;;29.70;96.70;;;;;;5073681;28;20464;-61
2021/01/26 09:24:07;;;;;;;13.98;11.25;;;29.60;97.10;;;;;;5073523;28;20024;-60
2021/01/26 09:26:34;;;;;;;12.10;8.57;;;29.50;97.60;;;;;;5073312;28;20021;-60
2021/01/26 09:29:01;;;;;;;13.30;11.13;;;29.40;98.10;;;;;;5073373;28;20025;-60
2021/01/26 09:31:30;;;;;;;13.98;9.95;;;29.40;98.20;;;;;;5075364;28;20034;-59
2021/01/26 09:34:06;;;;;;;14.45;8.38;;;29.40;98.50;;;;;;5077250;28;20020;-59
2021/01/26 09:36:35;;;;;;;13.95;9.50;;;29.40;98.80;;;;;;5077363;28;20031;-60
2021/01/26 09:39:08;;;;;;;18.58;8.90;;;29.40;99.10;;;;;;5077300;28;20020;-61
2021/01/26 09:41:37;;;;;;;13.82;10.63;;;29.40;99.30;;;;;;5077325;28;20053;-60
2021/01/26 09:44:09;;;;;;;12.63;10.20;;;29.30;99.10;;;;;;5075884;28;20025;-61
2021/01/26 09:46:51;;;;;;;16.48;11.48;;;29.20;99.40;;;;;;5077425;28;20020;-61
2021/01/26 09:49:20;;;;;;;18.75;10.18;;;29.10;99.90;;;;;;5077065;28;20029;-63
2021/01/26 09:52:15;;;;;;;14.73;12.43;;;29.10;99.90;;;;;;5077252;28;20051;-61
2021/01/26 09:54:43;;;;;;;14.80;11.02;;;29.30;99.90;;;;;;5077237;28;20028;-60
2021/01/26 09:57:18;;;;;;;14.68;11.40;;;29.30;99.70;;;;;;5077106;28;20037;-61
2021/01/26 09:59:46;;;;;;;12.27;8.70;;;29.80;99.60;;;;;;5076737;28;20484;-59
2021/01/26 10:02:16;;;;;;;12.75;8.75;;;29.80;98.60;;;;;;5076813;28;20033;-59
2021/01/26 10:04:44;;;;;;;11.32;9.48;;;29.90;98.50;;;;;;5076838;28;20029;-60
2021/01/26 10:07:18;;;;;;;13.00;10.10;;;29.90;99.10;;;;;;5075348;28;20044;-61
2021/01/26 10:09:46;;;;;;;13.57;10.77;;;29.80;99.50;;;;;;5077582;28;20437;-62
2021/01/26 10:12:28;;;;;;;14.82;10.18;;;29.70;99.90;;;;;;5075918;28;21892;-61
2021/01/26 10:15:33;;;;;;;14.27;10.15;;;29.50;99.90;;;;;;5076528;28;20040;-61
2021/01/26 10:18:08;;;;;;;12.10;9.98;;;29.40;99.90;;;;;;5077089;28;20040;-62
2021/01/26 10:20:53;;;;;;;16.88;10.88;;;29.30;99.90;;;;;;5076862;28;20019;-61
2021/01/26 10:23:35;;;;;;;15.25;12.23;;;29.10;99.90;;;;;;5076349;28;20090;-60
2021/01/26 10:26:09;;;;;;;15.80;10.80;;;29.00;99.90;;;;;;5075973;28;20381;-60
2021/01/26 10:29:12;;;;;;;13.85;11.38;;;29.00;99.90;;;;;;5076015;28;20020;-60
2021/01/26 10:31:48;;;;;;;19.02;13.93;;;29.00;99.90;;;;;;5075558;28;20103;-60
2021/01/26 10:34:30;;;;;;;20.77;16.02;;;28.90;99.90;;;;;;5075684;28;20056;-60
2021/01/26 10:37:10;;;;;;;17.33;13.75;;;28.90;99.90;;;;;;5075854;28;20017;-60
2021/01/26 10:39:37;;;;;;;16.88;13.30;;;28.90;99.90;;;;;;5075509;28;20507;-61
2021/01/26 10:42:17;;;;;;;14.70;12.88;;;28.80;99.90;;;;;;5075087;28;20422;-61
2021/01/26 10:44:49;;;;;;;13.85;12.35;;;28.80;99.90;;;;;;5075509;28;20121;-61
2021/01/26 10:47:29;;;;;;;13.40;11.98;;;28.80;99.90;;;;;;5075578;28;20029;-60
2021/01/26 10:50:04;;;;;;;17.35;14.43;;;28.70;99.90;;;;;;5075300;28;20035;-60
2021/01/26 10:52:44;;;;;;;19.55;14.85;;;28.70;99.90;;;;;;5075740;28;20024;-61
2021/01/26 10:55:17;;;;;;;11.85;9.70;;;28.60;99.90;;;;;;5075324;28;20024;-60
2021/01/26 10:57:46;;;;;;;10.80;9.20;;;28.40;99.90;;;;;;5075203;28;20028;-60
2021/01/26 11:00:17;;;;;;;10.45;8.45;;;28.30;99.90;;;;;;5075049;28;20020;-60
2021/01/26 11:02:45;;;;;;;10.70;9.60;;;28.20;99.90;;;;;;5073824;28;20020;-60
2021/01/26 11:05:13;;;;;;;14.63;11.43;;;28.00;99.90;;;;;;5075118;28;20039;-60
2021/01/26 11:07:41;;;;;;;15.40;13.93;;;27.80;99.90;;;;;;5074894;28;20075;-61
2021/01/26 11:10:11;;;;;;;15.75;14.10;;;27.70;99.90;;;;;;5075076;28;20028;-61
2021/01/26 11:12:39;;;;;;;18.35;13.85;;;27.60;99.90;;;;;;5074988;28;20033;-60
2021/01/26 11:15:11;;;;;;;18.52;15.68;;;27.60;99.90;;;;;;5074980;28;20095;-60
2021/01/26 11:17:39;;;;;;;21.63;17.35;;;27.60;99.90;;;;;;5075043;28;20577;-60
2021/01/26 11:20:08;;;;;;;21.52;19.27;;;27.60;99.90;;;;;;5074863;28;20070;-60
2021/01/26 11:22:35;;;;;;;23.05;20.63;;;27.60;99.90;;;;;;5074715;28;20029;-60
2021/01/26 11:25:05;;;;;;;25.40;20.83;;;27.40;99.90;;;;;;5074670;28;20048;-60
2021/01/26 11:27:33;;;;;;;24.35;22.13;;;27.30;99.90;;;;;;5074875;28;20024;-60
2021/01/26 11:30:00;;;;;;;25.83;23.13;;;27.20;99.90;;;;;;5074709;28;20094;-60
2021/01/26 11:32:27;;;;;;;23.60;21.02;;;27.20;99.90;;;;;;5074512;28;20489;-60
2021/01/26 11:34:55;;;;;;;23.80;21.35;;;27.20;99.90;;;;;;5074491;28;20016;-60
2021/01/26 11:37:22;;;;;;;23.10;20.83;;;27.10;99.90;;;;;;5074539;28;20416;-60
2021/01/26 11:39:49;;;;;;;22.90;20.25;;;27.10;99.90;;;;;;5074465;28;20098;-60
2021/01/26 11:42:17;;;;;;;23.58;21.25;;;27.10;99.90;;;;;;5074431;28;20032;-60
2021/01/26 11:44:44;;;;;;;24.85;22.60;;;27.00;99.90;;;;;;5074442;28;20028;-60
2021/01/26 11:47:11;;;;;;;23.20;20.90;;;26.80;99.90;;;;;;5074299;28;20031;-64
2021/01/26 11:49:39;;;;;;;26.58;22.35;;;26.70;99.90;;;;;;5074203;28;20024;-60
2021/01/26 11:52:06;;;;;;;24.25;21.52;;;26.70;99.90;;;;;;5074036;28;20025;-60
2021/01/26 11:54:33;;;;;;;24.27;21.67;;;26.70;99.90;;;;;;5074039;28;20377;-60
2021/01/26 11:57:01;;;;;;;24.65;21.48;;;26.70;99.90;;;;;;5073974;28;20523;-60
2021/01/26 11:59:28;;;;;;;22.90;20.60;;;26.60;99.90;;;;;;5074110;28;20021;-60
2021/01/26 12:01:58;;;;;;;23.55;21.17;;;26.50;99.90;;;;;;5073999;28;20377;-60
2021/01/26 12:04:25;;;;;;;26.52;21.48;;;26.50;99.90;;;;;;5073934;28;20389;-62
2021/01/26 12:06:52;;;;;;;25.50;22.13;;;26.50;99.90;;;;;;5073748;28;20551;-60
2021/01/26 12:09:20;;;;;;;25.42;22.38;;;26.50;99.90;;;;;;5073748;28;20117;-60
2021/01/26 12:11:47;;;;;;;26.83;23.95;;;26.40;99.90;;;;;;5073861;28;20424;-60
2021/01/26 12:14:15;;;;;;;27.77;24.80;;;26.40;99.90;;;;;;5073747;28;20017;-60
2021/01/26 12:16:42;;;;;;;26.58;23.83;;;26.30;99.90;;;;;;5073785;28;20017;-60
2021/01/26 12:19:10;;;;;;;30.48;26.92;;;26.30;99.90;;;;;;5073813;28;20062;-60
2021/01/26 12:21:37;;;;;;;33.17;28.83;;;26.20;99.90;;;;;;5073744;28;20028;-60
2021/01/26 12:24:05;;;;;;;36.13;32.40;;;26.00;99.90;;;;;;5073704;28;20056;-60
2021/01/26 12:26:32;;;;;;;42.85;36.58;;;26.00;99.90;;;;;;5073463;28;20074;-61
2021/01/26 12:28:59;;;;;;;42.92;37.97;;;26.00;99.90;;;;;;5073492;28;20028;-60
2021/01/26 12:31:27;;;;;;;47.65;42.45;;;26.00;99.90;;;;;;5073394;28;20107;-60
2021/01/26 12:33:55;;;;;;;45.17;40.30;;;26.00;99.90;;;;;;5073457;28;20449;-60
2021/01/26 12:36:22;;;;;;;46.25;41.50;;;25.80;99.90;;;;;;5073413;28;20013;-62
2021/01/26 12:38:50;;;;;;;47.35;42.28;;;25.80;99.90;;;;;;5073374;28;20048;-62
2021/01/26 12:41:17;;;;;;;46.05;41.20;;;25.70;99.90;;;;;;5073649;28;20028;-60
2021/01/26 12:43:45;;;;;;;47.45;40.90;;;25.60;99.90;;;;;;5073318;28;20024;-61
2021/01/26 12:46:12;;;;;;;43.20;37.47;;;25.60;99.90;;;;;;5073315;28;20073;-59
2021/01/26 12:48:40;;;;;;;38.75;32.55;;;25.50;99.90;;;;;;5073342;28;20025;-59
2021/01/26 12:51:07;;;;;;;39.28;33.50;;;25.40;99.90;;;;;;5073517;28;20036;-63
2021/01/26 12:53:34;;;;;;;37.88;31.67;;;25.40;99.90;;;;;;5073309;28;20031;-60
2021/01/26 12:56:02;;;;;;;38.28;29.88;;;25.20;99.90;;;;;;5073205;28;20407;-59
2021/01/26 12:58:29;;;;;;;29.35;25.90;;;25.10;99.90;;;;;;5073228;28;20094;-59
2021/01/26 13:00:56;;;;;;;29.95;24.70;;;25.00;99.90;;;;;;5073226;28;20074;-59
2021/01/26 13:03:24;;;;;;;33.33;25.38;;;24.90;99.90;;;;;;5073128;28;20423;-60
2021/01/26 13:05:51;;;;;;;29.48;25.30;;;24.80;99.90;;;;;;5072294;28;20445;-60
2021/01/26 13:08:18;;;;;;;28.58;22.85;;;24.80;99.90;;;;;;5073069;28;20068;-59
2021/01/26 13:10:45;;;;;;;30.90;22.23;;;24.80;99.90;;;;;;5073231;28;20477;-60
2021/01/26 13:13:13;;;;;;;33.58;24.20;;;24.70;99.90;;;;;;5072951;28;20079;-59
2021/01/26 13:15:40;;;;;;;27.70;19.13;;;24.70;99.90;;;;;;5072858;28;20408;-60
2021/01/26 13:18:08;;;;;;;25.35;19.70;;;24.70;99.90;;;;;;5072881;28;20012;-59